EDT,Max TemperatureF,Mean TemperatureF,Min TemperatureF,Max Dew PointF,MeanDew PointF,Min DewpointF,Max Humidity, Mean Humidity, Min Humidity, Max Sea Level PressureIn, Mean Sea Level PressureIn, Min Sea Level PressureIn, Max VisibilityMiles, Mean VisibilityMiles, Min VisibilityMiles, Max Wind SpeedMPH, Mean Wind SpeedMPH, Max Gust SpeedMPH,PrecipitationIn, CloudCover, Events, WindDirDegrees
2013-7-1,75,73,71,72,70,70,94,89,83,30.06,30.00,29.97,10,7,2,9,6,,0.00,8,Rain,171
2013-7-2,82,76,71,72,71,68,94,79,66,30.18,30.14,30.11,10,9,4,13,8,20,0.03,5,Rain,183
2013-7-3,84,78,72,72,69,67,87,77,63,30.26,30.22,30.18,10,10,4,14,7,18,0.00,2,Rain,219
2013-7-4,88,80,73,73,71,69,94,78,55,30.27,30.22,30.16,10,9,6,12,4,21,0.00,4,,224
2013-7-5,89,81,73,72,70,68,85,70,50,30.22,30.16,30.09,10,9,7,16,5,22,0.00,0,,230
2013-7-6,90,82,75,73,70,69,87,69,50,30.14,30.09,30.03,10,10,7,10,5,,0.00,0,,249
2013-7-7,91,82,73,75,72,69,90,75,50,30.06,30.00,29.94,10,8,2,14,4,18,0.13,1,Rain-Thunderstorm,213
2013-7-8,87,78,70,70,66,64,87,68,51,30.06,30.01,29.97,10,10,9,10,4,,0.00,1,Thunderstorm,245
2013-7-9,86,76,66,72,68,64,93,76,51,30.09,30.05,30.02,10,7,4,9,2,,0.02,2,Rain-Thunderstorm,183
2013-7-10,84,77,72,74,70,68,93,77,67,30.02,29.92,29.81,10,6,0,14,4,25,0.27,4,Fog-Rain-Thunderstorm,195
2013-7-11,82,74,64,72,67,60,89,75,54,29.95,29.87,29.81,10,8,2,8,2,,0.07,4,Rain-Thunderstorm,299
2013-7-12,80,72,64,65,61,58,90,73,58,30.17,30.07,29.95,10,9,2,13,6,20,0.13,4,Rain,66
2013-7-13,77,70,64,72,66,59,94,85,79,30.31,30.26,30.16,10,9,6,8,5,,0.03,8,Rain,69
2013-7-14,89,80,71,73,70,68,94,79,53,30.35,30.31,30.24,10,8,2,8,2,,0.01,6,Rain,266
2013-7-15,91,82,73,71,69,67,87,68,48,30.25,30.21,30.15,10,10,9,12,4,16,0.00,1,,298
2013-7-16,91,80,68,69,66,61,87,64,38,30.22,30.18,30.15,10,10,7,15,4,23,0.00,0,,301
2013-7-17,91,80,68,72,67,65,93,65,42,30.22,30.15,30.07,10,9,5,7,3,,0.00,0,,262
2013-7-18,93,82,73,75,71,67,93,71,47,30.10,30.03,29.97,10,8,2,7,2,18,0.23,1,Rain-Thunderstorm,264
2013-7-19,95,83,73,74,72,70,91,66,46,29.98,29.89,29.79,8,7,6,15,5,22,0.00,1,,236
2013-7-20,90,81,73,72,70,66,82,66,49,29.86,29.78,29.73,10,7,5,15,7,20,0.00,1,Rain,239
2013-7-21,84,74,66,68,63,59,90,71,45,29.98,29.94,29.86,10,8,1,10,3,,0.34,4,Rain,131
2013-7-22,82,74,66,72,68,64,94,83,65,30.00,29.94,29.84,10,6,1,9,3,,0.29,6,Rain,101
2013-7-23,86,78,71,72,70,65,94,83,58,29.81,29.67,29.58,10,6,1,18,5,26,1.06,6,Rain-Thunderstorm,207
2013-7-24,80,72,63,70,64,50,96,80,56,29.96,29.71,29.63,10,6,0,10,3,18,0.01,5,Fog,316
2013-7-25,66,62,60,57,52,47,84,69,62,30.10,30.05,29.98,10,10,10,12,8,17,0.02,8,Rain,42
2013-7-26,79,70,62,63,59,55,90,73,52,30.06,30.03,30.00,10,10,9,9,5,,0.02,5,Rain,360
2013-7-27,80,68,57,62,59,55,94,77,45,30.07,30.04,29.99,10,7,0,10,2,16,0.01,0,Fog,173
2013-7-28,75,68,61,67,63,58,94,83,64,30.02,29.99,29.96,10,8,2,16,2,,0.06,4,Rain,162
2013-7-29,82,72,61,67,64,53,94,79,43,30.11,30.02,29.98,10,7,0,13,2,17,0.00,4,Fog-Rain,241
2013-7-30,78,68,57,58,55,53,87,67,43,30.17,30.14,30.11,10,10,10,12,4,16,0.00,1,,267
2013-7-31,81,67,55,62,56,52,90,65,42,30.17,30.12,30.06,10,10,9,7,2,,0.00,1,,206